createdAt,value
2018-12-01T00:00:46.213Z,2.80
2018-12-01T00:03:14.875Z,2.80
2018-12-01T00:05:43.404Z,2.80
2018-12-01T00:08:11.983Z,2.80
2018-12-01T00:10:40.486Z,2.90
2018-12-01T00:13:08.975Z,2.90
2018-12-01T00:15:38.189Z,2.90
2018-12-01T00:18:07.083Z,2.80
2018-12-01T00:20:37.316Z,2.80
2018-12-01T00:23:06.915Z,2.80
2018-12-01T00:25:35.549Z,2.70
2018-12-01T00:28:04.136Z,2.70
2018-12-01T00:30:32.668Z,2.60
2018-12-01T00:33:01.203Z,2.70
2018-12-01T00:35:29.830Z,2.70
2018-12-01T00:37:58.331Z,2.70
2018-12-01T00:40:26.882Z,2.70
2018-12-01T00:42:55.431Z,2.70
2018-12-01T00:45:24.687Z,2.70
2018-12-01T00:47:53.843Z,2.60
2018-12-01T00:50:23.433Z,2.60
2018-12-01T00:52:52.873Z,2.60
2018-12-01T00:55:21.668Z,2.50
2018-12-01T00:57:50.930Z,2.60
2018-12-01T01:00:22.085Z,2.50
2018-12-01T01:02:57.095Z,2.60
2018-12-01T01:05:26.497Z,2.60
2018-12-01T01:07:55.673Z,2.60
2018-12-01T01:10:25.542Z,2.60
2018-12-01T01:12:54.201Z,2.60
2018-12-01T01:15:22.803Z,2.60
2018-12-01T01:17:51.346Z,2.60
2018-12-01T01:20:22.154Z,2.70
2018-12-01T01:22:51.041Z,2.70
2018-12-01T01:25:20.349Z,2.70
2018-12-01T01:27:48.939Z,2.70
2018-12-01T01:30:20.174Z,2.70
2018-12-01T01:32:49.749Z,2.80
2018-12-01T01:35:18.274Z,2.80
2018-12-01T01:37:46.894Z,2.80
2018-12-01T01:40:16.480Z,2.80
2018-12-01T01:42:45.623Z,2.80
2018-12-01T01:45:16.095Z,2.90
2018-12-01T01:47:44.655Z,2.90
2018-12-01T01:50:15.161Z,2.90
2018-12-01T01:52:43.718Z,3.00
2018-12-01T01:55:12.580Z,3.00
2018-12-01T01:57:41.205Z,3.00
2018-12-01T02:00:14.027Z,2.90
2018-12-01T02:02:44.636Z,3.00
2018-12-01T02:05:13.299Z,3.00
2018-12-01T02:07:41.877Z,3.00
2018-12-01T02:10:11.445Z,2.90
2018-12-01T02:12:39.959Z,3.00
2018-12-01T02:15:09.636Z,3.00
2018-12-01T02:17:38.144Z,3.00
2018-12-01T02:20:12.737Z,3.00
2018-12-01T02:22:41.239Z,3.00
2018-12-01T02:25:12.058Z,3.20
2018-12-01T02:27:40.715Z,3.30
2018-12-01T02:30:11.523Z,3.30
2018-12-01T02:32:40.010Z,3.30
2018-12-01T02:35:10.015Z,3.20
2018-12-01T02:37:38.674Z,3.20
2018-12-01T02:40:09.545Z,3.20
2018-12-01T02:42:38.712Z,3.10
2018-12-01T02:45:18.577Z,3.00
2018-12-01T02:47:47.131Z,3.20
2018-12-01T02:50:20.859Z,3.10
2018-12-01T02:52:49.438Z,3.10
2018-12-01T02:55:18.554Z,3.10
2018-12-01T02:57:47.142Z,3.00
2018-12-01T03:00:15.927Z,3.10
2018-12-01T03:02:44.444Z,2.90
2018-12-01T03:05:13.258Z,2.90
2018-12-01T03:07:42.531Z,2.80
2018-12-01T03:10:12.869Z,2.90
2018-12-01T03:12:41.345Z,2.90
2018-12-01T03:15:17.456Z,2.80
2018-12-01T03:17:46.370Z,2.80
2018-12-01T03:20:15.739Z,2.80
2018-12-01T03:22:44.367Z,2.90
2018-12-01T03:25:21.630Z,2.90
2018-12-01T03:27:51.319Z,3.00
2018-12-01T03:30:23.522Z,2.90
2018-12-01T03:32:52.808Z,2.80
2018-12-01T03:35:22.245Z,2.80
2018-12-01T03:37:51.202Z,2.70
2018-12-01T03:40:20.835Z,2.60
2018-12-01T03:42:50.209Z,2.60
2018-12-01T03:45:20.666Z,2.50
2018-12-01T03:47:49.195Z,2.50
2018-12-01T03:50:24.080Z,2.40
2018-12-01T03:52:56.537Z,2.40
2018-12-01T03:55:26.366Z,2.40
2018-12-01T03:57:54.900Z,2.40
2018-12-01T04:00:28.101Z,2.40
2018-12-01T04:02:57.559Z,2.40
2018-12-01T04:05:26.201Z,2.40
2018-12-01T04:07:54.881Z,2.30
2018-12-01T04:10:23.426Z,2.40
2018-12-01T04:12:52.830Z,2.40
2018-12-01T04:15:21.376Z,2.40
2018-12-01T04:17:50.010Z,2.40
2018-12-01T04:20:18.604Z,2.40
2018-12-01T04:22:47.057Z,2.40
2018-12-01T04:25:22.293Z,2.40
2018-12-01T04:27:50.806Z,2.50
2018-12-01T04:30:20.714Z,2.70
2018-12-01T04:32:49.246Z,2.70
2018-12-01T04:35:24.573Z,2.60
2018-12-01T04:37:55.865Z,2.50
2018-12-01T04:40:30.910Z,2.50
2018-12-01T04:43:00.193Z,2.50
2018-12-01T04:45:28.649Z,2.60
2018-12-01T04:47:57.241Z,2.50
2018-12-01T04:50:25.888Z,2.30
2018-12-01T04:52:54.347Z,2.30
2018-12-01T04:55:22.877Z,2.20
2018-12-01T04:57:51.400Z,2.00
2018-12-01T05:00:20.702Z,1.90
2018-12-01T05:02:49.245Z,1.90
2018-12-01T05:05:18.835Z,1.90
2018-12-01T05:07:47.329Z,1.80
2018-12-01T05:10:16.610Z,1.70
2018-12-01T05:12:45.117Z,1.60
2018-12-01T05:15:14.732Z,1.50
2018-12-01T05:17:43.397Z,1.50
2018-12-01T05:20:16.969Z,1.40
2018-12-01T05:22:45.487Z,1.40
2018-12-01T05:25:13.994Z,1.40
2018-12-01T05:27:42.572Z,1.30
2018-12-01T05:30:11.076Z,1.20
2018-12-01T05:32:39.701Z,1.30
2018-12-01T05:35:11.235Z,1.10
2018-12-01T05:37:39.779Z,1.00
2018-12-01T05:40:12.198Z,1.00
2018-12-01T05:42:40.727Z,1.00
2018-12-01T05:45:12.541Z,1.10
2018-12-01T05:47:41.282Z,1.00
2018-12-01T05:50:10.827Z,1.00
2018-12-01T05:52:40.300Z,1.00
2018-12-01T05:55:10.210Z,1.00
2018-12-01T05:57:38.658Z,1.00
2018-12-01T06:00:10.252Z,1.00
2018-12-01T06:02:38.759Z,1.10
2018-12-01T06:05:08.123Z,1.10
2018-12-01T06:07:37.288Z,1.20
2018-12-01T06:10:09.734Z,1.20
2018-12-01T06:12:38.237Z,1.40
2018-12-01T06:15:08.834Z,1.30
2018-12-01T06:17:37.326Z,1.30
2018-12-01T06:20:07.954Z,1.30
2018-12-01T06:22:36.549Z,1.30
2018-12-01T06:25:06.067Z,1.40
2018-12-01T06:27:34.590Z,1.50
2018-12-01T06:30:03.417Z,1.50
2018-12-01T06:32:32.149Z,1.50
2018-12-01T06:35:00.871Z,1.60
2018-12-01T06:37:29.500Z,1.50
2018-12-01T06:39:58.145Z,1.50
2018-12-01T06:42:26.652Z,1.60
2018-12-01T06:44:55.202Z,1.70
2018-12-01T06:47:24.269Z,1.60
2018-12-01T06:49:53.014Z,1.50
2018-12-01T06:52:21.627Z,1.60
2018-12-01T06:54:50.282Z,1.50
2018-12-01T06:57:18.794Z,1.50
2018-12-01T06:59:47.321Z,1.50
2018-12-01T07:02:15.883Z,1.60
2018-12-01T07:04:44.459Z,1.60
2018-12-01T07:07:13.057Z,1.60
2018-12-01T07:09:42.526Z,1.50
2018-12-01T07:12:11.164Z,1.60
2018-12-01T07:14:40.415Z,1.60
2018-12-01T07:17:09.186Z,1.60
2018-12-01T07:19:37.750Z,1.60
2018-12-01T07:22:06.337Z,1.70
2018-12-01T07:24:34.817Z,1.70
2018-12-01T07:27:03.515Z,1.70
2018-12-01T07:29:32.110Z,1.70
2018-12-01T07:32:00.629Z,1.60
2018-12-01T07:34:29.181Z,1.70
2018-12-01T07:36:58.373Z,1.50
2018-12-01T07:39:27.204Z,1.50
2018-12-01T07:41:55.953Z,1.50
2018-12-01T07:44:24.634Z,1.70
2018-12-01T07:46:53.557Z,1.70
2018-12-01T07:49:22.045Z,1.70
2018-12-01T07:51:50.631Z,1.60
2018-12-01T07:54:19.266Z,1.60
2018-12-01T07:56:47.827Z,1.60
2018-12-01T07:59:16.408Z,1.70
2018-12-01T08:01:44.993Z,1.80
2018-12-01T08:04:13.583Z,1.90
2018-12-01T08:06:42.318Z,2.00
2018-12-01T08:09:11.025Z,2.00
2018-12-01T08:11:39.563Z,2.00
2018-12-01T08:14:08.220Z,2.10
2018-12-01T08:16:37.531Z,2.10
2018-12-01T08:19:06.238Z,2.10
2018-12-01T08:21:34.823Z,2.20
2018-12-01T08:24:03.423Z,2.10
2018-12-01T08:26:31.944Z,2.20
2018-12-01T08:29:00.589Z,2.30
2018-12-01T08:31:29.621Z,2.30
2018-12-01T08:33:57.911Z,2.30
2018-12-01T08:36:26.526Z,2.50
2018-12-01T08:38:55.193Z,2.50
2018-12-01T08:41:23.773Z,2.50
2018-12-01T08:43:52.419Z,2.50
2018-12-01T08:46:21.175Z,2.50
2018-12-01T08:48:49.669Z,2.60
2018-12-01T08:51:18.295Z,2.70
2018-12-01T08:53:46.850Z,2.70
2018-12-01T08:56:15.442Z,2.80
2018-12-01T08:58:45.067Z,2.80
2018-12-01T09:01:13.696Z,2.80
2018-12-01T09:03:42.231Z,2.90
2018-12-01T09:06:10.993Z,2.90
2018-12-01T09:08:39.607Z,3.10
2018-12-01T09:11:08.734Z,3.10
2018-12-01T09:13:37.316Z,3.10
2018-12-01T09:16:07.470Z,3.10
2018-12-01T09:18:36.179Z,3.10
2018-12-01T09:21:05.263Z,3.10
2018-12-01T09:23:34.677Z,3.30
2018-12-01T09:26:03.388Z,3.40
2018-12-01T09:28:33.440Z,3.40
2018-12-01T09:31:02.309Z,3.40
2018-12-01T09:33:31.549Z,3.50
2018-12-01T09:36:00.197Z,3.50
2018-12-01T09:38:28.836Z,3.40
2018-12-01T09:40:57.519Z,3.60
2018-12-01T09:43:26.203Z,3.60
2018-12-01T09:45:54.825Z,3.60
2018-12-01T09:48:23.473Z,3.60
2018-12-01T09:50:52.092Z,3.60
2018-12-01T09:53:20.825Z,3.70
2018-12-01T09:55:49.486Z,3.60
2018-12-01T09:58:18.110Z,3.70
2018-12-01T10:00:46.737Z,3.80
2018-12-01T10:03:15.328Z,4.00
2018-12-01T10:05:43.929Z,4.20
2018-12-01T10:08:12.712Z,4.20
2018-12-01T10:10:41.476Z,4.40
2018-12-01T10:13:10.293Z,4.60
2018-12-01T10:15:39.006Z,4.60
2018-12-01T10:18:08.924Z,4.70
2018-12-01T10:20:38.655Z,4.70
2018-12-01T10:23:11.504Z,4.70
2018-12-01T10:25:40.264Z,4.70
2018-12-01T10:28:10.136Z,4.70
2018-12-01T10:30:38.820Z,4.70
2018-12-01T10:33:08.090Z,4.60
2018-12-01T10:35:37.625Z,4.80
2018-12-01T10:38:11.324Z,4.70
2018-12-01T10:40:39.915Z,4.80
2018-12-01T10:43:08.595Z,4.90
2018-12-01T10:45:37.231Z,5.10
2018-12-01T10:48:07.312Z,5.20
2018-12-01T10:50:35.982Z,5.30
2018-12-01T10:53:05.071Z,5.50
2018-12-01T10:55:35.035Z,5.60
2018-12-01T10:58:17.833Z,5.70
2018-12-01T11:00:52.910Z,5.70
2018-12-01T11:03:27.434Z,5.70
2018-12-01T11:05:57.411Z,5.70
2018-12-01T11:08:26.031Z,5.70
2018-12-01T11:10:55.343Z,5.50
2018-12-01T11:13:23.918Z,5.50
2018-12-01T11:15:52.534Z,5.40
2018-12-01T11:18:21.152Z,5.40
2018-12-01T11:20:50.508Z,5.40
2018-12-01T11:23:19.729Z,5.40
2018-12-01T11:25:48.239Z,5.50
2018-12-01T11:28:16.814Z,5.60
2018-12-01T11:30:45.331Z,5.70
2018-12-01T11:33:13.912Z,5.80
2018-12-01T11:35:42.512Z,6.00
2018-12-01T11:38:11.196Z,6.10
2018-12-01T11:40:39.724Z,6.30
2018-12-01T11:43:09.495Z,6.40
2018-12-01T11:45:38.079Z,6.50
2018-12-01T11:48:07.482Z,6.70
2018-12-01T11:50:36.043Z,6.80
2018-12-01T11:53:05.565Z,7.00
2018-12-01T11:55:34.373Z,7.10
2018-12-01T11:58:03.045Z,7.20
2018-12-01T12:00:31.662Z,7.30
2018-12-01T12:03:01.393Z,7.40
2018-12-01T12:05:30.689Z,7.50
2018-12-01T12:08:25.123Z,7.60
2018-12-01T12:10:54.208Z,7.70
2018-12-01T12:13:23.987Z,7.70
2018-12-01T12:15:52.797Z,7.90
2018-12-01T12:18:22.018Z,7.90
2018-12-01T12:20:50.798Z,8.00
2018-12-01T12:23:19.455Z,8.00
2018-12-01T12:25:48.050Z,8.10
2018-12-01T12:28:16.672Z,8.20
2018-12-01T12:30:45.276Z,8.30
2018-12-01T12:33:14.090Z,8.20
2018-12-01T12:35:43.371Z,8.30
2018-12-01T12:38:11.956Z,8.30
2018-12-01T12:40:40.713Z,8.30
2018-12-01T12:43:09.456Z,8.30
2018-12-01T12:45:38.116Z,8.30
2018-12-01T12:48:07.910Z,8.30
2018-12-01T12:50:36.497Z,8.30
2018-12-01T12:53:05.459Z,8.30
2018-12-01T12:55:34.833Z,8.30
2018-12-01T12:58:03.498Z,8.40
2018-12-01T13:00:32.118Z,8.40
2018-12-01T13:03:09.573Z,8.50
2018-12-01T13:05:39.291Z,8.50
2018-12-01T13:08:08.790Z,8.50
2018-12-01T13:10:37.389Z,8.50
2018-12-01T13:13:07.003Z,8.40
2018-12-01T13:15:37.174Z,8.40
2018-12-01T13:18:08.617Z,8.30
2018-12-01T13:20:37.262Z,8.30
2018-12-01T13:23:06.519Z,8.20
2018-12-01T13:25:35.140Z,8.20
2018-12-01T13:28:14.640Z,8.20
2018-12-01T13:30:49.505Z,8.20
2018-12-01T13:33:18.405Z,8.20
2018-12-01T13:35:47.829Z,8.20
2018-12-01T13:38:16.810Z,8.30
2018-12-01T13:40:45.447Z,8.40
2018-12-01T13:43:14.332Z,8.30
2018-12-01T13:45:43.138Z,8.40
2018-12-01T13:48:11.871Z,8.50
2018-12-01T13:50:40.614Z,8.60
2018-12-01T13:53:11.805Z,8.70
2018-12-01T13:55:40.442Z,8.70
2018-12-01T13:58:09.054Z,8.70
2018-12-01T14:00:37.866Z,8.70
2018-12-01T14:03:07.027Z,8.70
2018-12-01T14:05:35.691Z,8.60
2018-12-01T14:08:04.341Z,8.50
2018-12-01T14:10:32.996Z,8.40
2018-12-01T14:13:04.297Z,8.30
2018-12-01T14:15:32.984Z,8.20
2018-12-01T14:18:02.092Z,8.20
2018-12-01T14:20:30.742Z,8.20
2018-12-01T14:22:59.422Z,8.10
2018-12-01T14:25:28.037Z,8.10
2018-12-01T14:27:59.263Z,8.10
2018-12-01T14:30:28.061Z,8.10
2018-12-01T14:32:57.239Z,8.00
2018-12-01T14:35:29.923Z,8.00
2018-12-01T14:38:01.949Z,8.00
2018-12-01T14:40:31.277Z,8.00
2018-12-01T14:42:59.174Z,8.00
2018-12-01T14:45:27.779Z,8.00
2018-12-01T14:47:56.621Z,7.90
2018-12-01T14:50:25.243Z,7.90
2018-12-01T14:52:54.575Z,7.80
2018-12-01T14:55:23.165Z,7.70
2018-12-01T14:57:51.718Z,7.60
2018-12-01T15:00:21.625Z,7.50
2018-12-01T15:02:54.505Z,7.40
2018-12-01T15:05:23.527Z,7.40
2018-12-01T15:07:52.353Z,7.30
2018-12-01T15:10:25.021Z,7.40
2018-12-01T15:12:53.696Z,7.30
2018-12-01T15:15:24.342Z,7.20
2018-12-01T15:17:53.110Z,7.10
2018-12-01T15:20:22.831Z,7.00
2018-12-01T15:22:52.846Z,6.80
2018-12-01T15:25:25.668Z,6.70
2018-12-01T15:27:54.255Z,6.60
2018-12-01T15:30:26.834Z,6.40
2018-12-01T15:33:13.453Z,6.30
2018-12-01T15:35:43.278Z,6.20
2018-12-01T15:38:11.895Z,6.00
2018-12-01T15:40:43.958Z,5.90
2018-12-01T15:43:12.672Z,5.80
2018-12-01T15:45:41.719Z,5.60
2018-12-01T15:48:11.670Z,5.40
2018-12-01T15:50:40.295Z,5.10
2018-12-01T15:53:12.165Z,4.80
2018-12-01T15:55:41.053Z,4.50
2018-12-01T15:58:10.467Z,4.30
2018-12-01T16:00:40.639Z,4.20
2018-12-01T16:03:09.303Z,4.10
2018-12-01T16:05:37.931Z,4.00
2018-12-01T16:08:08.005Z,3.90
2018-12-01T16:10:36.765Z,3.80
2018-12-01T16:13:10.466Z,3.70
2018-12-01T16:15:40.700Z,3.60
2018-12-01T16:18:09.990Z,3.50
2018-12-01T16:20:39.286Z,3.50
2018-12-01T16:23:08.267Z,3.40
2018-12-01T16:25:36.954Z,3.40
2018-12-01T16:28:05.804Z,3.30
2018-12-01T16:30:42.574Z,3.40
2018-12-01T16:33:16.983Z,3.30
2018-12-01T16:35:45.584Z,3.20
2018-12-01T16:38:17.006Z,3.20
2018-12-01T16:40:47.866Z,3.10
2018-12-01T16:43:16.080Z,3.00
2018-12-01T16:45:46.228Z,3.00
2018-12-01T16:48:14.878Z,3.10
2018-12-01T16:50:43.573Z,3.10
2018-12-01T16:53:13.873Z,3.10
2018-12-01T16:55:42.584Z,3.10
2018-12-01T16:58:11.175Z,3.10
2018-12-01T17:00:39.896Z,3.10
2018-12-01T17:03:09.442Z,3.20
2018-12-01T17:05:40.162Z,3.20
2018-12-01T17:08:08.962Z,3.20
2018-12-01T17:10:38.122Z,3.20
2018-12-01T17:13:08.118Z,3.20
2018-12-01T17:15:37.773Z,3.20
2018-12-01T17:18:07.980Z,3.20
2018-12-01T17:20:37.043Z,3.20
2018-12-01T17:23:08.802Z,3.20
2018-12-01T17:25:37.421Z,3.20
2018-12-01T17:28:08.276Z,3.20
2018-12-01T17:30:36.905Z,3.30
2018-12-01T17:33:06.397Z,3.30
2018-12-01T17:35:35.180Z,3.40
2018-12-01T17:38:05.954Z,3.30
2018-12-01T17:40:47.132Z,3.40
2018-12-01T17:43:17.992Z,3.40
2018-12-01T17:45:46.650Z,3.40
2018-12-01T17:48:15.289Z,3.50
2018-12-01T17:50:43.913Z,3.50
2018-12-01T17:53:12.538Z,3.50
2018-12-01T17:55:41.878Z,3.50
2018-12-01T17:58:11.172Z,3.60
2018-12-01T18:00:40.611Z,3.60
2018-12-01T18:03:09.255Z,3.60
2018-12-01T18:05:45.460Z,3.60
2018-12-01T18:08:16.368Z,3.70
2018-12-01T18:10:45.875Z,3.70
2018-12-01T18:13:14.444Z,3.70
2018-12-01T18:15:43.221Z,3.80
2018-12-01T18:18:11.821Z,3.80
2018-12-01T18:20:40.505Z,3.80
2018-12-01T18:23:10.933Z,3.90
2018-12-01T18:25:43.182Z,3.90
2018-12-01T18:28:13.763Z,3.90
2018-12-01T18:30:42.575Z,3.90
2018-12-01T18:33:13.707Z,4.00
2018-12-01T18:35:42.972Z,4.00
2018-12-01T18:38:12.074Z,4.00
2018-12-01T18:40:40.678Z,4.00
2018-12-01T18:43:09.826Z,4.00
2018-12-01T18:45:40.673Z,4.00
2018-12-01T18:48:09.469Z,4.10
2018-12-01T18:50:38.184Z,4.10
2018-12-01T18:53:09.205Z,4.10
2018-12-01T18:55:39.513Z,4.10
2018-12-01T18:58:09.410Z,4.10
2018-12-01T19:00:46.120Z,4.10
2018-12-01T19:03:14.879Z,4.10
2018-12-01T19:05:43.569Z,4.10
2018-12-01T19:08:12.208Z,4.10
2018-12-01T19:10:41.913Z,4.10
2018-12-01T19:13:11.085Z,4.10
2018-12-01T19:15:39.815Z,4.10
2018-12-01T19:18:08.937Z,4.10
2018-12-01T19:20:37.921Z,4.10
2018-12-01T19:23:08.009Z,4.20
2018-12-01T19:25:36.822Z,4.20
2018-12-01T19:28:05.719Z,4.20
2018-12-01T19:30:34.319Z,4.20
2018-12-01T19:33:06.518Z,4.20
2018-12-01T19:35:35.229Z,4.20
2018-12-01T19:38:03.840Z,4.20
2018-12-01T19:40:33.816Z,4.20
2018-12-01T19:43:02.971Z,4.20
2018-12-01T19:45:31.583Z,4.20
2018-12-01T19:48:00.193Z,4.30
2018-12-01T19:50:32.957Z,4.30
2018-12-01T19:53:01.556Z,4.30
2018-12-01T19:55:30.784Z,4.40
2018-12-01T19:58:00.015Z,4.50
2018-12-01T20:00:30.451Z,4.50
2018-12-01T20:03:03.602Z,4.50
2018-12-01T20:05:32.476Z,4.60
2018-12-01T20:08:01.104Z,4.60
2018-12-01T20:10:33.815Z,4.70
2018-12-01T20:13:07.705Z,4.80
2018-12-01T20:15:40.523Z,4.90
2018-12-01T20:18:15.550Z,4.90
2018-12-01T20:20:44.526Z,5.00
2018-12-01T20:23:13.207Z,5.10
2018-12-01T20:25:41.877Z,5.20
2018-12-01T20:28:10.515Z,5.20
2018-12-01T20:30:39.175Z,5.30
2018-12-01T20:33:08.657Z,5.40
2018-12-01T20:35:59.523Z,5.40
2018-12-01T20:38:31.955Z,5.50
2018-12-01T20:41:00.567Z,5.40
2018-12-01T20:43:29.179Z,5.40
2018-12-01T20:45:57.900Z,5.40
2018-12-01T20:48:26.704Z,5.40
2018-12-01T20:50:55.597Z,5.40
2018-12-01T20:53:24.203Z,5.50
2018-12-01T20:55:55.935Z,5.50
2018-12-01T20:58:27.940Z,5.60
2018-12-01T21:00:56.676Z,5.50
2018-12-01T21:03:25.245Z,5.60
2018-12-01T21:05:53.805Z,5.50
2018-12-01T21:08:27.668Z,5.40
2018-12-01T21:10:54.566Z,5.40
2018-12-01T21:13:23.242Z,5.40
2018-12-01T21:15:51.902Z,5.40
2018-12-01T21:18:20.561Z,5.40
2018-12-01T21:20:49.193Z,5.30
2018-12-01T21:23:17.866Z,5.30
2018-12-01T21:25:47.184Z,5.40
2018-12-01T21:28:15.840Z,5.40
2018-12-01T21:30:45.616Z,5.50
2018-12-01T21:33:17.230Z,5.40
2018-12-01T21:35:45.876Z,5.30
2018-12-01T21:38:15.380Z,5.30
2018-12-01T21:40:44.201Z,5.20
2018-12-01T21:43:13.158Z,5.10
2018-12-01T21:45:41.791Z,5.20
2018-12-01T21:48:11.912Z,5.20
2018-12-01T21:50:41.985Z,5.20
2018-12-01T21:53:13.129Z,5.10
2018-12-01T21:55:41.857Z,5.10
2018-12-01T21:58:10.438Z,5.10
2018-12-01T22:00:40.966Z,5.00
2018-12-01T22:03:11.490Z,5.00
2018-12-01T22:05:49.707Z,5.00
2018-12-01T22:08:18.388Z,5.00
2018-12-01T22:10:50.022Z,5.00
2018-12-01T22:13:18.726Z,4.90
2018-12-01T22:15:47.509Z,5.00
2018-12-01T22:18:16.113Z,5.00
2018-12-01T22:20:44.781Z,4.90
2018-12-01T22:23:13.419Z,4.90
2018-12-01T22:25:41.982Z,4.90
2018-12-01T22:28:12.737Z,4.90
2018-12-01T22:30:42.165Z,4.90
2018-12-01T22:33:15.475Z,4.90
2018-12-01T22:35:46.586Z,4.90
2018-12-01T22:38:15.179Z,4.90
2018-12-01T22:40:44.442Z,5.10
2018-12-01T22:43:13.122Z,5.20
2018-12-01T22:45:41.751Z,5.20
2018-12-01T22:48:13.961Z,5.20
2018-12-01T22:50:43.946Z,5.30
2018-12-01T22:53:12.618Z,5.30
2018-12-01T22:55:42.248Z,5.30
2018-12-01T22:58:13.146Z,5.30
2018-12-01T23:00:59.268Z,5.40
2018-12-01T23:03:30.599Z,5.40
2018-12-01T23:05:59.327Z,5.30
2018-12-01T23:08:28.793Z,5.40
2018-12-01T23:10:57.405Z,5.40
2018-12-01T23:13:26.107Z,5.40
2018-12-01T23:15:54.856Z,5.50
2018-12-01T23:18:24.702Z,5.50
2018-12-01T23:20:53.329Z,5.60
2018-12-01T23:23:21.993Z,5.60
2018-12-01T23:25:50.596Z,5.60
2018-12-01T23:28:19.127Z,5.60
2018-12-01T23:30:50.268Z,5.60
2018-12-01T23:33:21.331Z,5.50
2018-12-01T23:35:50.008Z,5.50
2018-12-01T23:38:18.531Z,5.50
2018-12-01T23:40:47.145Z,5.60
2018-12-01T23:43:15.654Z,5.50
2018-12-01T23:45:44.773Z,5.50
2018-12-01T23:48:13.372Z,5.50
2018-12-01T23:50:43.858Z,5.50
2018-12-01T23:53:13.995Z,5.40
2018-12-01T23:55:42.543Z,5.40
2018-12-01T23:58:11.030Z,5.40
